sensor_id;sensor_type;location;lat;lon;timestamp;temperature;humidity
8862;DHT22;4799;50.996;4.754;2022-08-04T00:02:18;24.20;99.90
8862;DHT22;4799;50.996;4.754;2022-08-04T00:04:49;24.10;99.90
8862;DHT22;4799;50.996;4.754;2022-08-04T00:07:24;24.10;99.90
8862;DHT22;4799;50.996;4.754;2022-08-04T00:10:00;24.00;99.90
8862;DHT22;4799;50.996;4.754;2022-08-04T00:12:29;23.90;99.90
8862;DHT22;4799;50.996;4.754;2022-08-04T00:14:58;23.90;99.90
8862;DHT22;4799;50.996;4.754;2022-08-04T00:17:30;23.80;99.90
8862;DHT22;4799;50.996;4.754;2022-08-04T00:20:00;23.80;99.90
8862;DHT22;4799;50.996;4.754;2022-08-04T00:22:29;23.70;99.90
8862;DHT22;4799;50.996;4.754;2022-08-04T00:24:56;23.70;99.90
8862;DHT22;4799;50.996;4.754;2022-08-04T00:27:23;23.70;99.90
8862;DHT22;4799;50.996;4.754;2022-08-04T00:29:48;23.60;99.90
8862;DHT22;4799;50.996;4.754;2022-08-04T00:32:17;23.60;99.90
8862;DHT22;4799;50.996;4.754;2022-08-04T00:34:43;23.50;99.90
8862;DHT22;4799;50.996;4.754;2022-08-04T00:37:09;23.50;99.90
8862;DHT22;4799;50.996;4.754;2022-08-04T00:39:35;23.40;99.90
8862;DHT22;4799;50.996;4.754;2022-08-04T00:42:25;23.40;99.90
8862;DHT22;4799;50.996;4.754;2022-08-04T00:45:06;23.40;99.90
8862;DHT22;4799;50.996;4.754;2022-08-04T00:53:16;23.30;99.90
8862;DHT22;4799;50.996;4.754;2022-08-04T00:56:03;23.20;99.90
8862;DHT22;4799;50.996;4.754;2022-08-04T00:58:48;23.20;99.90
8862;DHT22;4799;50.996;4.754;2022-08-04T01:04:19;23.00;99.90
8862;DHT22;4799;50.996;4.754;2022-08-04T01:15:17;22.80;99.90
8862;DHT22;4799;50.996;4.754;2022-08-04T01:20:32;22.80;99.90
8862;DHT22;4799;50.996;4.754;2022-08-04T01:25:58;22.70;99.90
8862;DHT22;4799;50.996;4.754;2022-08-04T01:30:57;22.60;99.90
8862;DHT22;4799;50.996;4.754;2022-08-04T01:33:28;22.60;99.90
8862;DHT22;4799;50.996;4.754;2022-08-04T01:35:56;22.60;99.90
8862;DHT22;4799;50.996;4.754;2022-08-04T01:38:34;22.60;99.90
8862;DHT22;4799;50.996;4.754;2022-08-04T01:41:06;22.60;99.90
8862;DHT22;4799;50.996;4.754;2022-08-04T01:43:34;22.50;99.90
8862;DHT22;4799;50.996;4.754;2022-08-04T01:46:03;22.50;99.90
8862;DHT22;4799;50.996;4.754;2022-08-04T01:48:30;22.50;99.90
8862;DHT22;4799;50.996;4.754;2022-08-04T01:51:03;22.50;99.90
8862;DHT22;4799;50.996;4.754;2022-08-04T01:53:35;22.40;99.90
8862;DHT22;4799;50.996;4.754;2022-08-04T01:56:03;22.40;99.90
8862;DHT22;4799;50.996;4.754;2022-08-04T01:58:31;22.40;99.90
8862;DHT22;4799;50.996;4.754;2022-08-04T02:00:58;22.30;99.90
8862;DHT22;4799;50.996;4.754;2022-08-04T02:03:27;22.30;99.90
8862;DHT22;4799;50.996;4.754;2022-08-04T02:06:07;22.20;99.90
8862;DHT22;4799;50.996;4.754;2022-08-04T02:08:45;22.20;99.90
8862;DHT22;4799;50.996;4.754;2022-08-04T02:11:19;22.10;99.90
8862;DHT22;4799;50.996;4.754;2022-08-04T02:14:27;22.10;99.90
8862;DHT22;4799;50.996;4.754;2022-08-04T02:18:01;22.10;99.90
8862;DHT22;4799;50.996;4.754;2022-08-04T02:20:24;22.00;99.90
8862;DHT22;4799;50.996;4.754;2022-08-04T02:22:57;21.90;99.90
8862;DHT22;4799;50.996;4.754;2022-08-04T02:25:27;21.90;99.90
8862;DHT22;4799;50.996;4.754;2022-08-04T02:30:45;21.90;99.90
8862;DHT22;4799;50.996;4.754;2022-08-04T02:33:18;21.80;99.90
8862;DHT22;4799;50.996;4.754;2022-08-04T02:35:45;21.70;99.90
8862;DHT22;4799;50.996;4.754;2022-08-04T02:38:31;21.70;99.90
8862;DHT22;4799;50.996;4.754;2022-08-04T02:41:03;21.70;99.90
8862;DHT22;4799;50.996;4.754;2022-08-04T02:43:30;21.60;99.90
8862;DHT22;4799;50.996;4.754;2022-08-04T02:45:58;21.60;99.90
8862;DHT22;4799;50.996;4.754;2022-08-04T02:48:26;21.50;99.90
8862;DHT22;4799;50.996;4.754;2022-08-04T02:50:53;21.50;99.90
8862;DHT22;4799;50.996;4.754;2022-08-04T02:53:21;21.50;99.90
8862;DHT22;4799;50.996;4.754;2022-08-04T02:55:47;21.40;99.90
8862;DHT22;4799;50.996;4.754;2022-08-04T02:58:19;21.40;99.90
8862;DHT22;4799;50.996;4.754;2022-08-04T03:00:44;21.40;99.90
8862;DHT22;4799;50.996;4.754;2022-08-04T03:03:41;21.30;99.90
8862;DHT22;4799;50.996;4.754;2022-08-04T03:11:55;21.20;99.90
8862;DHT22;4799;50.996;4.754;2022-08-04T03:34:42;20.90;99.90
8862;DHT22;4799;50.996;4.754;2022-08-04T03:48:52;20.70;99.90
8862;DHT22;4799;50.996;4.754;2022-08-04T03:57:29;20.70;99.90
8862;DHT22;4799;50.996;4.754;2022-08-04T04:00:07;20.70;99.90
8862;DHT22;4799;50.996;4.754;2022-08-04T04:11:18;20.70;99.90
8862;DHT22;4799;50.996;4.754;2022-08-04T04:27:39;20.80;99.90
8862;DHT22;4799;50.996;4.754;2022-08-04T04:39:00;20.90;99.90
8862;DHT22;4799;50.996;4.754;2022-08-04T04:41:54;20.90;99.90
8862;DHT22;4799;50.996;4.754;2022-08-04T04:47:10;21.00;99.90
8862;DHT22;4799;50.996;4.754;2022-08-04T04:49:50;21.10;99.90
8862;DHT22;4799;50.996;4.754;2022-08-04T04:55:26;21.20;99.90
8862;DHT22;4799;50.996;4.754;2022-08-04T04:57:57;21.20;99.90
8862;DHT22;4799;50.996;4.754;2022-08-04T05:03:29;21.40;99.90
8862;DHT22;4799;50.996;4.754;2022-08-04T05:06:27;21.50;99.90
8862;DHT22;4799;50.996;4.754;2022-08-04T05:09:21;21.50;99.90
8862;DHT22;4799;50.996;4.754;2022-08-04T05:14:40;21.80;99.90
8862;DHT22;4799;50.996;4.754;2022-08-04T05:17:21;21.90;99.90
8862;DHT22;4799;50.996;4.754;2022-08-04T05:20:03;21.90;99.90
8862;DHT22;4799;50.996;4.754;2022-08-04T05:22:31;22.00;99.90
8862;DHT22;4799;50.996;4.754;2022-08-04T05:25:20;22.00;99.90
8862;DHT22;4799;50.996;4.754;2022-08-04T05:28:19;22.00;99.90
8862;DHT22;4799;50.996;4.754;2022-08-04T05:30:59;22.10;99.90
8862;DHT22;4799;50.996;4.754;2022-08-04T05:34:14;22.10;99.90
8862;DHT22;4799;50.996;4.754;2022-08-04T05:36:19;22.10;99.90
8862;DHT22;4799;50.996;4.754;2022-08-04T05:38:51;22.20;99.90
8862;DHT22;4799;50.996;4.754;2022-08-04T05:41:18;22.30;99.90
8862;DHT22;4799;50.996;4.754;2022-08-04T05:43:46;22.30;99.90
8862;DHT22;4799;50.996;4.754;2022-08-04T05:46:14;22.40;99.90
8862;DHT22;4799;50.996;4.754;2022-08-04T05:48:41;22.50;99.90
8862;DHT22;4799;50.996;4.754;2022-08-04T05:51:09;22.60;99.90
8862;DHT22;4799;50.996;4.754;2022-08-04T05:53:36;22.70;99.90
8862;DHT22;4799;50.996;4.754;2022-08-04T05:56:04;22.80;99.90
8862;DHT22;4799;50.996;4.754;2022-08-04T05:58:31;23.00;99.90
8862;DHT22;4799;50.996;4.754;2022-08-04T06:00:58;23.10;99.90
8862;DHT22;4799;50.996;4.754;2022-08-04T06:03:27;23.20;99.90
8862;DHT22;4799;50.996;4.754;2022-08-04T06:05:53;23.40;99.90
8862;DHT22;4799;50.996;4.754;2022-08-04T06:08:21;23.40;99.90
8862;DHT22;4799;50.996;4.754;2022-08-04T06:10:50;23.40;99.90
8862;DHT22;4799;50.996;4.754;2022-08-04T06:13:21;23.50;99.90
8862;DHT22;4799;50.996;4.754;2022-08-04T06:15:52;23.50;99.90
8862;DHT22;4799;50.996;4.754;2022-08-04T06:18:21;23.60;99.90
8862;DHT22;4799;50.996;4.754;2022-08-04T06:20:47;23.60;99.90
8862;DHT22;4799;50.996;4.754;2022-08-04T06:23:18;23.80;99.90
8862;DHT22;4799;50.996;4.754;2022-08-04T06:25:51;23.90;99.90
8862;DHT22;4799;50.996;4.754;2022-08-04T06:28:19;23.90;99.90
8862;DHT22;4799;50.996;4.754;2022-08-04T06:30:46;23.90;99.90
8862;DHT22;4799;50.996;4.754;2022-08-04T06:33:15;24.10;99.90
8862;DHT22;4799;50.996;4.754;2022-08-04T06:35:56;24.30;99.90
8862;DHT22;4799;50.996;4.754;2022-08-04T06:38:24;24.30;99.90
8862;DHT22;4799;50.996;4.754;2022-08-04T06:40:52;24.30;99.90
8862;DHT22;4799;50.996;4.754;2022-08-04T06:43:19;24.40;99.90
8862;DHT22;4799;50.996;4.754;2022-08-04T06:45:46;24.30;99.90
8862;DHT22;4799;50.996;4.754;2022-08-04T06:48:14;24.30;99.90
8862;DHT22;4799;50.996;4.754;2022-08-04T06:50:43;24.40;99.90
8862;DHT22;4799;50.996;4.754;2022-08-04T06:53:10;24.30;99.90
8862;DHT22;4799;50.996;4.754;2022-08-04T06:55:37;24.30;99.90
8862;DHT22;4799;50.996;4.754;2022-08-04T06:58:04;24.30;99.90
8862;DHT22;4799;50.996;4.754;2022-08-04T07:00:31;24.30;99.90
8862;DHT22;4799;50.996;4.754;2022-08-04T07:02:58;24.40;99.90
8862;DHT22;4799;50.996;4.754;2022-08-04T07:05:24;24.70;99.90
8862;DHT22;4799;50.996;4.754;2022-08-04T07:07:51;24.80;99.90
8862;DHT22;4799;50.996;4.754;2022-08-04T07:10:17;24.90;99.90
8862;DHT22;4799;50.996;4.754;2022-08-04T07:12:43;25.00;99.90
8862;DHT22;4799;50.996;4.754;2022-08-04T07:15:10;25.10;99.90
8862;DHT22;4799;50.996;4.754;2022-08-04T07:17:36;25.20;99.90
8862;DHT22;4799;50.996;4.754;2022-08-04T07:20:06;25.30;99.90
8862;DHT22;4799;50.996;4.754;2022-08-04T07:22:32;25.40;99.90
8862;DHT22;4799;50.996;4.754;2022-08-04T07:24:59;25.50;99.90
8862;DHT22;4799;50.996;4.754;2022-08-04T07:27:25;25.60;99.90
8862;DHT22;4799;50.996;4.754;2022-08-04T07:29:54;25.70;99.90
8862;DHT22;4799;50.996;4.754;2022-08-04T07:32:21;25.70;99.90
8862;DHT22;4799;50.996;4.754;2022-08-04T07:34:50;25.90;99.90
8862;DHT22;4799;50.996;4.754;2022-08-04T07:37:17;25.90;99.90
8862;DHT22;4799;50.996;4.754;2022-08-04T07:39:43;26.00;99.90
8862;DHT22;4799;50.996;4.754;2022-08-04T07:42:09;26.00;99.90
8862;DHT22;4799;50.996;4.754;2022-08-04T07:44:36;26.00;99.90
8862;DHT22;4799;50.996;4.754;2022-08-04T07:47:04;26.10;99.90
8862;DHT22;4799;50.996;4.754;2022-08-04T07:49:30;26.30;99.90
8862;DHT22;4799;50.996;4.754;2022-08-04T07:51:56;26.40;99.90
8862;DHT22;4799;50.996;4.754;2022-08-04T07:54:23;26.50;99.90
8862;DHT22;4799;50.996;4.754;2022-08-04T07:56:50;26.50;99.90
8862;DHT22;4799;50.996;4.754;2022-08-04T07:59:17;26.50;99.90
8862;DHT22;4799;50.996;4.754;2022-08-04T08:01:44;26.50;99.90
8862;DHT22;4799;50.996;4.754;2022-08-04T08:04:10;26.60;99.90
8862;DHT22;4799;50.996;4.754;2022-08-04T08:06:37;26.60;99.90
8862;DHT22;4799;50.996;4.754;2022-08-04T08:09:23;26.70;99.90
8862;DHT22;4799;50.996;4.754;2022-08-04T08:11:50;26.80;99.90
8862;DHT22;4799;50.996;4.754;2022-08-04T08:14:17;26.90;99.90
8862;DHT22;4799;50.996;4.754;2022-08-04T08:16:44;26.90;99.90
8862;DHT22;4799;50.996;4.754;2022-08-04T08:19:10;27.00;99.90
8862;DHT22;4799;50.996;4.754;2022-08-04T08:21:36;27.20;99.90
8862;DHT22;4799;50.996;4.754;2022-08-04T08:24:04;27.30;99.90
8862;DHT22;4799;50.996;4.754;2022-08-04T08:26:30;27.30;99.90
8862;DHT22;4799;50.996;4.754;2022-08-04T08:28:56;27.40;99.90
8862;DHT22;4799;50.996;4.754;2022-08-04T08:31:22;27.40;99.90
8862;DHT22;4799;50.996;4.754;2022-08-04T08:33:49;27.40;99.90
8862;DHT22;4799;50.996;4.754;2022-08-04T08:36:22;27.50;99.90
8862;DHT22;4799;50.996;4.754;2022-08-04T09:06:45;27.00;99.90
8862;DHT22;4799;50.996;4.754;2022-08-04T09:14:49;26.80;99.90
8862;DHT22;4799;50.996;4.754;2022-08-04T09:17:34;26.70;99.90
8862;DHT22;4799;50.996;4.754;2022-08-04T09:20:28;26.50;99.90
8862;DHT22;4799;50.996;4.754;2022-08-04T09:25:27;26.10;99.90
8862;DHT22;4799;50.996;4.754;2022-08-04T09:27:59;26.00;99.90
8862;DHT22;4799;50.996;4.754;2022-08-04T09:39:30;25.40;99.90
8862;DHT22;4799;50.996;4.754;2022-08-04T09:41:37;25.20;99.90
8862;DHT22;4799;50.996;4.754;2022-08-04T09:44:23;25.00;99.90
8862;DHT22;4799;50.996;4.754;2022-08-04T09:47:00;25.00;99.90
8862;DHT22;4799;50.996;4.754;2022-08-04T09:49:35;24.80;99.90
8862;DHT22;4799;50.996;4.754;2022-08-04T09:54:58;24.60;99.90
8862;DHT22;4799;50.996;4.754;2022-08-04T09:57:54;24.60;99.90
8862;DHT22;4799;50.996;4.754;2022-08-04T10:00:20;24.70;99.90
8862;DHT22;4799;50.996;4.754;2022-08-04T10:02:51;24.80;99.90
8862;DHT22;4799;50.996;4.754;2022-08-04T10:05:26;25.00;99.90
8862;DHT22;4799;50.996;4.754;2022-08-04T10:10:55;25.40;99.90
8862;DHT22;4799;50.996;4.754;2022-08-04T10:13:40;25.70;99.90
8862;DHT22;4799;50.996;4.754;2022-08-04T10:16:46;25.90;99.90
8862;DHT22;4799;50.996;4.754;2022-08-04T10:19:27;25.90;99.90
8862;DHT22;4799;50.996;4.754;2022-08-04T10:24:57;25.80;99.90
8862;DHT22;4799;50.996;4.754;2022-08-04T10:27:47;25.80;99.90
8862;DHT22;4799;50.996;4.754;2022-08-04T10:30:16;25.90;99.90
8862;DHT22;4799;50.996;4.754;2022-08-04T10:32:59;26.00;99.90
8862;DHT22;4799;50.996;4.754;2022-08-04T10:35:32;26.20;99.90
8862;DHT22;4799;50.996;4.754;2022-08-04T10:38:16;26.40;99.90
8862;DHT22;4799;50.996;4.754;2022-08-04T10:46:36;26.90;99.90
8862;DHT22;4799;50.996;4.754;2022-08-04T10:49:15;26.90;99.90
8862;DHT22;4799;50.996;4.754;2022-08-04T10:54:36;26.80;99.90
8862;DHT22;4799;50.996;4.754;2022-08-04T10:57:13;26.80;99.90
8862;DHT22;4799;50.996;4.754;2022-08-04T10:59:46;26.80;99.90
8862;DHT22;4799;50.996;4.754;2022-08-04T11:05:02;26.90;99.90
8862;DHT22;4799;50.996;4.754;2022-08-04T11:07:31;27.10;99.90
8862;DHT22;4799;50.996;4.754;2022-08-04T11:09:59;27.30;99.90
8862;DHT22;4799;50.996;4.754;2022-08-04T11:12:26;27.50;99.90
8862;DHT22;4799;50.996;4.754;2022-08-04T11:15:20;27.70;99.90
8862;DHT22;4799;50.996;4.754;2022-08-04T11:17:52;27.80;99.90
8862;DHT22;4799;50.996;4.754;2022-08-04T11:20:29;28.00;99.90
8862;DHT22;4799;50.996;4.754;2022-08-04T11:23:15;28.10;99.90
8862;DHT22;4799;50.996;4.754;2022-08-04T11:29:00;28.20;99.90
8862;DHT22;4799;50.996;4.754;2022-08-04T11:31:32;28.40;99.90
8862;DHT22;4799;50.996;4.754;2022-08-04T11:36:44;28.70;99.60
8862;DHT22;4799;50.996;4.754;2022-08-04T11:39:24;29.00;99.10
8862;DHT22;4799;50.996;4.754;2022-08-04T11:50:11;29.30;96.70
8862;DHT22;4799;50.996;4.754;2022-08-04T11:52:41;29.30;96.30
8862;DHT22;4799;50.996;4.754;2022-08-04T11:55:11;29.30;96.90
8862;DHT22;4799;50.996;4.754;2022-08-04T11:57:38;29.40;97.30
8862;DHT22;4799;50.996;4.754;2022-08-04T12:00:11;29.50;96.90
8862;DHT22;4799;50.996;4.754;2022-08-04T12:05:32;29.60;96.20
8862;DHT22;4799;50.996;4.754;2022-08-04T12:11:11;29.60;95.20
8862;DHT22;4799;50.996;4.754;2022-08-04T12:13:49;29.70;95.00
8862;DHT22;4799;50.996;4.754;2022-08-04T12:16:25;29.80;94.90
8862;DHT22;4799;50.996;4.754;2022-08-04T12:18:57;29.90;94.80
8862;DHT22;4799;50.996;4.754;2022-08-04T12:24:04;30.00;94.00
8862;DHT22;4799;50.996;4.754;2022-08-04T12:26:39;30.00;93.90
8862;DHT22;4799;50.996;4.754;2022-08-04T12:29:08;30.00;93.80
8862;DHT22;4799;50.996;4.754;2022-08-04T12:31:45;29.90;93.70
8862;DHT22;4799;50.996;4.754;2022-08-04T12:34:53;29.60;93.90
8862;DHT22;4799;50.996;4.754;2022-08-04T12:40:30;29.60;94.80
8862;DHT22;4799;50.996;4.754;2022-08-04T12:45:52;29.80;94.40
8862;DHT22;4799;50.996;4.754;2022-08-04T12:48:21;29.80;93.70
8862;DHT22;4799;50.996;4.754;2022-08-04T12:50:53;29.70;93.30
8862;DHT22;4799;50.996;4.754;2022-08-04T12:53:22;29.60;93.30
8862;DHT22;4799;50.996;4.754;2022-08-04T12:55:51;29.50;92.50
8862;DHT22;4799;50.996;4.754;2022-08-04T12:58:19;29.50;92.40
8862;DHT22;4799;50.996;4.754;2022-08-04T13:00:57;29.50;92.10
8862;DHT22;4799;50.996;4.754;2022-08-04T13:03:35;29.60;91.50
8862;DHT22;4799;50.996;4.754;2022-08-04T13:06:03;29.60;91.10
8862;DHT22;4799;50.996;4.754;2022-08-04T13:08:36;29.50;90.80
8862;DHT22;4799;50.996;4.754;2022-08-04T13:11:03;29.60;90.50
8862;DHT22;4799;50.996;4.754;2022-08-04T13:13:33;29.60;90.60
8862;DHT22;4799;50.996;4.754;2022-08-04T13:16:08;29.80;90.80
8862;DHT22;4799;50.996;4.754;2022-08-04T13:18:45;29.90;90.00
8862;DHT22;4799;50.996;4.754;2022-08-04T13:21:19;30.00;90.10
8862;DHT22;4799;50.996;4.754;2022-08-04T13:23:51;30.00;88.40
8862;DHT22;4799;50.996;4.754;2022-08-04T13:26:17;30.00;89.10
8862;DHT22;4799;50.996;4.754;2022-08-04T13:28:48;30.00;88.40
8862;DHT22;4799;50.996;4.754;2022-08-04T13:31:20;30.10;88.40
8862;DHT22;4799;50.996;4.754;2022-08-04T13:33:49;30.30;88.90
8862;DHT22;4799;50.996;4.754;2022-08-04T13:36:16;30.40;88.50
8862;DHT22;4799;50.996;4.754;2022-08-04T13:38:50;30.40;87.50
8862;DHT22;4799;50.996;4.754;2022-08-04T13:41:18;30.30;87.50
8862;DHT22;4799;50.996;4.754;2022-08-04T13:43:47;30.50;87.30
8862;DHT22;4799;50.996;4.754;2022-08-04T13:46:46;30.70;87.10
8862;DHT22;4799;50.996;4.754;2022-08-04T13:49:15;31.00;85.50
8862;DHT22;4799;50.996;4.754;2022-08-04T13:51:50;31.10;84.80
8862;DHT22;4799;50.996;4.754;2022-08-04T13:54:16;31.20;84.20
8862;DHT22;4799;50.996;4.754;2022-08-04T13:56:49;31.30;82.30
8862;DHT22;4799;50.996;4.754;2022-08-04T13:59:16;31.20;82.30
8862;DHT22;4799;50.996;4.754;2022-08-04T14:02:00;31.30;81.40
8862;DHT22;4799;50.996;4.754;2022-08-04T14:04:28;31.40;80.50
8862;DHT22;4799;50.996;4.754;2022-08-04T14:07:09;31.40;80.20
8862;DHT22;4799;50.996;4.754;2022-08-04T14:09:38;31.40;79.20
8862;DHT22;4799;50.996;4.754;2022-08-04T14:12:13;31.20;79.80
8862;DHT22;4799;50.996;4.754;2022-08-04T14:14:50;31.20;79.00
8862;DHT22;4799;50.996;4.754;2022-08-04T14:17:23;31.40;78.80
8862;DHT22;4799;50.996;4.754;2022-08-04T14:19:57;31.50;77.50
8862;DHT22;4799;50.996;4.754;2022-08-04T14:25:13;31.80;76.60
8862;DHT22;4799;50.996;4.754;2022-08-04T14:27:48;31.90;76.00
8862;DHT22;4799;50.996;4.754;2022-08-04T14:30:34;31.80;74.00
8862;DHT22;4799;50.996;4.754;2022-08-04T14:35:27;31.80;74.10
8862;DHT22;4799;50.996;4.754;2022-08-04T14:37:55;31.90;72.90
8862;DHT22;4799;50.996;4.754;2022-08-04T14:40:27;32.00;71.40
8862;DHT22;4799;50.996;4.754;2022-08-04T14:42:53;32.00;69.60
8862;DHT22;4799;50.996;4.754;2022-08-04T14:45:29;31.90;70.00
8862;DHT22;4799;50.996;4.754;2022-08-04T14:47:55;31.90;70.30
8862;DHT22;4799;50.996;4.754;2022-08-04T14:50:33;31.80;70.80
8862;DHT22;4799;50.996;4.754;2022-08-04T14:53:14;31.80;70.50
8862;DHT22;4799;50.996;4.754;2022-08-04T14:55:46;31.90;70.80
8862;DHT22;4799;50.996;4.754;2022-08-04T14:58:29;32.00;70.40
8862;DHT22;4799;50.996;4.754;2022-08-04T15:00:57;32.00;69.90
8862;DHT22;4799;50.996;4.754;2022-08-04T15:03:24;32.00;70.10
8862;DHT22;4799;50.996;4.754;2022-08-04T15:05:51;32.20;70.30
8862;DHT22;4799;50.996;4.754;2022-08-04T15:08:18;32.30;70.20
8862;DHT22;4799;50.996;4.754;2022-08-04T15:10:44;32.30;70.00
8862;DHT22;4799;50.996;4.754;2022-08-04T15:13:10;32.40;70.50
8862;DHT22;4799;50.996;4.754;2022-08-04T15:15:40;32.50;70.20
8862;DHT22;4799;50.996;4.754;2022-08-04T15:18:10;32.40;69.20
8862;DHT22;4799;50.996;4.754;2022-08-04T15:20:36;32.20;69.80
8862;DHT22;4799;50.996;4.754;2022-08-04T15:23:04;32.20;69.70
8862;DHT22;4799;50.996;4.754;2022-08-04T15:25:38;32.20;69.90
8862;DHT22;4799;50.996;4.754;2022-08-04T15:28:10;32.20;69.90
8862;DHT22;4799;50.996;4.754;2022-08-04T15:30:37;32.20;69.80
8862;DHT22;4799;50.996;4.754;2022-08-04T15:33:04;32.30;70.40
8862;DHT22;4799;50.996;4.754;2022-08-04T15:35:30;32.30;70.20
8862;DHT22;4799;50.996;4.754;2022-08-04T15:40:42;32.10;70.40
8862;DHT22;4799;50.996;4.754;2022-08-04T15:45:59;32.10;70.80
8862;DHT22;4799;50.996;4.754;2022-08-04T15:48:27;32.20;70.70
8862;DHT22;4799;50.996;4.754;2022-08-04T15:58:50;31.90;72.90
8862;DHT22;4799;50.996;4.754;2022-08-04T16:01:16;32.00;71.60
8862;DHT22;4799;50.996;4.754;2022-08-04T16:03:49;32.00;70.80
8862;DHT22;4799;50.996;4.754;2022-08-04T16:19:06;31.90;70.70
8862;DHT22;4799;50.996;4.754;2022-08-04T16:21:55;31.80;71.30
8862;DHT22;4799;50.996;4.754;2022-08-04T16:27:00;31.70;71.40
8862;DHT22;4799;50.996;4.754;2022-08-04T16:34:51;31.80;69.50
8862;DHT22;4799;50.996;4.754;2022-08-04T16:37:18;31.80;69.30
8862;DHT22;4799;50.996;4.754;2022-08-04T16:39:45;31.80;68.70
8862;DHT22;4799;50.996;4.754;2022-08-04T16:42:27;31.70;68.80
8862;DHT22;4799;50.996;4.754;2022-08-04T16:50:18;31.60;70.30
8862;DHT22;4799;50.996;4.754;2022-08-04T16:52:51;31.50;71.00
8862;DHT22;4799;50.996;4.754;2022-08-04T16:55:22;31.70;70.50
8862;DHT22;4799;50.996;4.754;2022-08-04T16:57:50;31.90;70.30
8862;DHT22;4799;50.996;4.754;2022-08-04T17:00:17;32.20;69.10
8862;DHT22;4799;50.996;4.754;2022-08-04T17:02:52;32.50;67.70
8862;DHT22;4799;50.996;4.754;2022-08-04T17:05:22;32.80;66.40
8862;DHT22;4799;50.996;4.754;2022-08-04T17:07:50;33.00;65.90
8862;DHT22;4799;50.996;4.754;2022-08-04T17:10:16;33.00;64.30
8862;DHT22;4799;50.996;4.754;2022-08-04T17:12:42;32.90;63.80
8862;DHT22;4799;50.996;4.754;2022-08-04T17:15:21;32.70;64.40
8862;DHT22;4799;50.996;4.754;2022-08-04T17:17:47;32.50;64.80
8862;DHT22;4799;50.996;4.754;2022-08-04T17:20:13;32.30;66.10
8862;DHT22;4799;50.996;4.754;2022-08-04T17:22:40;32.30;67.50
8862;DHT22;4799;50.996;4.754;2022-08-04T17:25:06;32.30;67.20
8862;DHT22;4799;50.996;4.754;2022-08-04T17:27:32;32.20;67.40
8862;DHT22;4799;50.996;4.754;2022-08-04T17:29:58;32.20;68.30
8862;DHT22;4799;50.996;4.754;2022-08-04T17:32:24;32.10;68.80
8862;DHT22;4799;50.996;4.754;2022-08-04T17:34:58;31.90;69.10
8862;DHT22;4799;50.996;4.754;2022-08-04T17:37:24;31.60;69.50
8862;DHT22;4799;50.996;4.754;2022-08-04T17:39:51;31.30;70.90
8862;DHT22;4799;50.996;4.754;2022-08-04T17:42:32;31.00;72.50
8862;DHT22;4799;50.996;4.754;2022-08-04T17:45:10;30.70;73.80
8862;DHT22;4799;50.996;4.754;2022-08-04T17:47:50;30.50;74.80
8862;DHT22;4799;50.996;4.754;2022-08-04T17:50:29;30.30;75.80
8862;DHT22;4799;50.996;4.754;2022-08-04T17:55:35;29.90;77.10
8862;DHT22;4799;50.996;4.754;2022-08-04T17:58:14;29.70;79.20
8862;DHT22;4799;50.996;4.754;2022-08-04T18:00:40;29.60;79.40
8862;DHT22;4799;50.996;4.754;2022-08-04T18:03:06;29.50;79.90
8862;DHT22;4799;50.996;4.754;2022-08-04T18:05:32;29.40;80.50
8862;DHT22;4799;50.996;4.754;2022-08-04T18:08:05;29.30;80.60
8862;DHT22;4799;50.996;4.754;2022-08-04T18:10:40;29.00;81.20
8862;DHT22;4799;50.996;4.754;2022-08-04T18:13:07;28.90;82.70
8862;DHT22;4799;50.996;4.754;2022-08-04T18:15:33;28.70;83.50
8862;DHT22;4799;50.996;4.754;2022-08-04T18:18:17;28.60;84.00
8862;DHT22;4799;50.996;4.754;2022-08-04T18:20:43;28.50;84.80
8862;DHT22;4799;50.996;4.754;2022-08-04T18:23:10;28.30;85.70
8862;DHT22;4799;50.996;4.754;2022-08-04T18:25:36;28.10;86.70
8862;DHT22;4799;50.996;4.754;2022-08-04T18:28:05;28.00;87.40
8862;DHT22;4799;50.996;4.754;2022-08-04T18:30:35;27.80;88.30
8862;DHT22;4799;50.996;4.754;2022-08-04T18:33:01;27.80;89.20
8862;DHT22;4799;50.996;4.754;2022-08-04T18:35:27;27.70;89.80
8862;DHT22;4799;50.996;4.754;2022-08-04T18:37:53;27.50;90.00
8862;DHT22;4799;50.996;4.754;2022-08-04T18:40:20;27.50;90.20
8862;DHT22;4799;50.996;4.754;2022-08-04T18:42:46;27.40;90.40
8862;DHT22;4799;50.996;4.754;2022-08-04T18:45:12;27.40;90.70
8862;DHT22;4799;50.996;4.754;2022-08-04T18:47:39;27.30;90.40
8862;DHT22;4799;50.996;4.754;2022-08-04T18:50:05;27.20;90.20
8862;DHT22;4799;50.996;4.754;2022-08-04T18:52:31;27.10;90.40
8862;DHT22;4799;50.996;4.754;2022-08-04T18:54:57;27.00;90.30
8862;DHT22;4799;50.996;4.754;2022-08-04T18:57:25;26.90;90.20
8862;DHT22;4799;50.996;4.754;2022-08-04T18:59:54;26.80;90.20
8862;DHT22;4799;50.996;4.754;2022-08-04T19:02:20;26.70;90.10
8862;DHT22;4799;50.996;4.754;2022-08-04T19:04:46;26.70;90.30
8862;DHT22;4799;50.996;4.754;2022-08-04T19:07:13;26.60;90.50
8862;DHT22;4799;50.996;4.754;2022-08-04T19:09:40;26.50;90.60
8862;DHT22;4799;50.996;4.754;2022-08-04T19:12:06;26.40;92.70
8862;DHT22;4799;50.996;4.754;2022-08-04T19:14:32;26.30;94.40
8862;DHT22;4799;50.996;4.754;2022-08-04T19:16:58;25.90;96.90
8862;DHT22;4799;50.996;4.754;2022-08-04T19:19:23;25.30;99.90
8862;DHT22;4799;50.996;4.754;2022-08-04T19:21:49;24.80;99.90
8862;DHT22;4799;50.996;4.754;2022-08-04T19:24:15;24.30;99.90
8862;DHT22;4799;50.996;4.754;2022-08-04T19:26:41;23.90;99.90
8862;DHT22;4799;50.996;4.754;2022-08-04T19:29:07;23.70;99.90
8862;DHT22;4799;50.996;4.754;2022-08-04T19:31:33;23.40;99.90
8862;DHT22;4799;50.996;4.754;2022-08-04T19:34:00;23.30;99.90
8862;DHT22;4799;50.996;4.754;2022-08-04T19:36:27;23.10;99.90
8862;DHT22;4799;50.996;4.754;2022-08-04T19:38:57;23.10;99.90
8862;DHT22;4799;50.996;4.754;2022-08-04T19:41:24;22.90;99.90
8862;DHT22;4799;50.996;4.754;2022-08-04T19:43:50;22.70;99.90
8862;DHT22;4799;50.996;4.754;2022-08-04T19:46:16;22.60;99.90
8862;DHT22;4799;50.996;4.754;2022-08-04T19:48:42;22.60;99.90
8862;DHT22;4799;50.996;4.754;2022-08-04T19:51:09;22.50;99.90
8862;DHT22;4799;50.996;4.754;2022-08-04T19:53:34;22.50;99.90
8862;DHT22;4799;50.996;4.754;2022-08-04T19:56:00;22.50;99.90
8862;DHT22;4799;50.996;4.754;2022-08-04T19:58:26;22.50;99.90
8862;DHT22;4799;50.996;4.754;2022-08-04T20:00:52;22.50;99.90
8862;DHT22;4799;50.996;4.754;2022-08-04T20:03:19;22.50;99.90
8862;DHT22;4799;50.996;4.754;2022-08-04T20:05:44;22.50;99.90
8862;DHT22;4799;50.996;4.754;2022-08-04T20:08:11;22.50;99.90
8862;DHT22;4799;50.996;4.754;2022-08-04T20:10:37;22.50;99.90
8862;DHT22;4799;50.996;4.754;2022-08-04T20:13:04;22.60;99.90
8862;DHT22;4799;50.996;4.754;2022-08-04T20:15:30;22.50;99.90
8862;DHT22;4799;50.996;4.754;2022-08-04T20:17:56;22.60;99.90
8862;DHT22;4799;50.996;4.754;2022-08-04T20:20:21;22.50;99.90
8862;DHT22;4799;50.996;4.754;2022-08-04T20:22:47;22.50;99.90
8862;DHT22;4799;50.996;4.754;2022-08-04T20:25:13;22.40;99.90
8862;DHT22;4799;50.996;4.754;2022-08-04T20:27:39;22.30;99.90
8862;DHT22;4799;50.996;4.754;2022-08-04T20:30:05;22.10;99.90
8862;DHT22;4799;50.996;4.754;2022-08-04T20:32:31;22.00;99.90
8862;DHT22;4799;50.996;4.754;2022-08-04T20:34:57;21.90;99.90
8862;DHT22;4799;50.996;4.754;2022-08-04T20:37:25;21.70;99.90
8862;DHT22;4799;50.996;4.754;2022-08-04T20:39:55;21.60;99.90
8862;DHT22;4799;50.996;4.754;2022-08-04T20:42:26;21.50;99.90
8862;DHT22;4799;50.996;4.754;2022-08-04T20:44:53;21.50;99.90